Wednesday, October 17, 2018, 4:16 AM EDT
Back to Local

KLNS, Lancaster Airport

Location: Lititz, PA, United States Lat: 40.117
Local Time: 4:16 AM EDT ( 8:16 GMT) Lon: -76.3
Time Zone: US/Eastern Elev: 403 ft

Show me the last for .
Show Decoded

2018-10-17 03:53 METAR KLNS 170753Z AUTO 28003KT 10SM CLR 06/05 A3005 RMK AO2 SLP175 T00610050 =
2018-10-17 02:53 METAR KLNS 170653Z AUTO 00000KT 10SM CLR 07/06 A3005 RMK AO2 SLP176 T00720056 =
2018-10-17 01:53 METAR KLNS 170553Z AUTO 30003KT 10SM CLR 07/06 A3006 RMK AO2 SLP181 T00720056
                 10100 20061 58008 =
2018-10-16 23:53 METAR KLNS 170353Z AUTO 28003KT 10SM CLR 08/06 A3008 RMK AO2 SLP187 T00830056 =
2018-10-16 22:53 METAR KLNS 170253Z 00000KT 10SM CLR 09/06 A3009 RMK AO2 SLP189 T00890056 55003 =
2018-10-16 21:53 METAR KLNS 170153Z 00000KT 10SM CLR 09/06 A3008 RMK AO2 SLP188 T00890056 =
2018-10-16 20:53 METAR KLNS 170053Z 00000KT 10SM CLR 09/07 A3009 RMK AO2 SLP189 T00890067 =
2018-10-16 19:53 METAR KLNS 162353Z 00000KT 10SM CLR 10/06 A3010 RMK AO2 SLP193 T01000056 10122
                 20094 55001 =
2018-10-16 18:53 METAR KLNS 162253Z 00000KT 10SM CLR 11/03 A3009 RMK AO2 SLP191 T01110033 =
2018-10-16 17:53 METAR KLNS 162153Z 26005KT 10SM CLR 11/03 A3009 RMK AO2 SLP189 T01110033 =
2018-10-16 16:53 METAR KLNS 162053Z 27006KT 10SM CLR 12/03 A3010 RMK AO2 SLP194 T01220033 55017 =
2018-10-16 15:53 METAR KLNS 161953Z 30007KT 10SM CLR 12/03 A3010 RMK AO2 SLP193 T01220028 =
2018-10-16 14:53 METAR KLNS 161853Z 27010KT 10SM CLR 12/02 A3011 RMK AO2 SLP197 T01170022 =
2018-10-16 13:53 METAR KLNS 161753Z 27010KT 10SM CLR 12/02 A3015 RMK AO2 SLP210 T01170017 10117
                 20089 58020 =
2018-10-16 12:53 METAR KLNS 161653Z 31010KT 10SM CLR 11/02 A3018 RMK AO2 SLP219 T01110017 =
2018-10-16 11:53 METAR KLNS 161553Z 32012KT 10SM CLR 11/02 A3020 RMK AO2 SLP227 T01110022 =
2018-10-16 10:53 METAR KLNS 161453Z 35011KT 10SM CLR 11/02 A3021 RMK AO2 SLP230 T01060017 50003 =
2018-10-16 09:53 METAR KLNS 161353Z 33013KT 10SM CLR 09/01 A3022 RMK AO2 SLP232 T00940011 =
2018-10-16 08:53 METAR KLNS 161253Z 32008G18KT 10SM CLR 09/01 A3022 RMK AO2 SLP233 T00890011 =
2018-10-16 07:53 METAR KLNS 161153Z 32011G18KT 10SM CLR 09/01 A3020 RMK AO2 SLP226 70006
                 T00890011 10139 20083 52023 =
2018-10-16 06:53 METAR KLNS 161053Z 33011KT 10SM CLR 09/03 A3017 RMK AO2 SLP217 T00940028 =
2018-10-16 05:53 METAR KLNS 160953Z 31007KT 10SM CLR 10/04 A3016 RMK AO2 SLP213 T01000044 =
2018-10-16 04:53 METAR KLNS 160853Z AUTO 30008KT 10SM CLR 11/04 A3013 RMK AO2 SLP203 T01110039
                 53016 =

Support USWX by starting your Amazon purchase here.